sensor_id;sensor_type;location;lat;lon;timestamp;P1;durP1;ratioP1;P2;durP2;ratioP2
66437;SDS011;54537;47.972;11.662;2022-07-23T00:01:19;9.95;;;5.63;;
66437;SDS011;54537;47.972;11.662;2022-07-23T00:03:45;10.63;;;5.97;;
66437;SDS011;54537;47.972;11.662;2022-07-23T00:06:13;10.73;;;5.90;;
66437;SDS011;54537;47.972;11.662;2022-07-23T00:08:40;11.65;;;5.93;;
66437;SDS011;54537;47.972;11.662;2022-07-23T00:11:06;11.05;;;5.85;;
66437;SDS011;54537;47.972;11.662;2022-07-23T00:13:32;9.52;;;5.60;;
66437;SDS011;54537;47.972;11.662;2022-07-23T00:15:59;11.95;;;5.93;;
66437;SDS011;54537;47.972;11.662;2022-07-23T00:18:25;9.40;;;5.70;;
66437;SDS011;54537;47.972;11.662;2022-07-23T00:20:51;8.93;;;5.30;;
66437;SDS011;54537;47.972;11.662;2022-07-23T00:23:19;9.85;;;5.75;;
66437;SDS011;54537;47.972;11.662;2022-07-23T00:25:45;9.95;;;5.68;;
66437;SDS011;54537;47.972;11.662;2022-07-23T00:28:11;10.50;;;5.60;;
66437;SDS011;54537;47.972;11.662;2022-07-23T00:30:38;10.70;;;5.97;;
66437;SDS011;54537;47.972;11.662;2022-07-23T00:33:05;10.30;;;5.47;;
66437;SDS011;54537;47.972;11.662;2022-07-23T00:35:32;9.48;;;5.63;;
66437;SDS011;54537;47.972;11.662;2022-07-23T00:37:59;10.82;;;6.07;;
66437;SDS011;54537;47.972;11.662;2022-07-23T00:40:26;12.48;;;5.88;;
66437;SDS011;54537;47.972;11.662;2022-07-23T00:42:53;10.00;;;5.53;;
66437;SDS011;54537;47.972;11.662;2022-07-23T00:45:19;9.95;;;5.38;;
66437;SDS011;54537;47.972;11.662;2022-07-23T00:47:46;8.98;;;4.78;;
66437;SDS011;54537;47.972;11.662;2022-07-23T00:50:13;10.73;;;5.60;;
66437;SDS011;54537;47.972;11.662;2022-07-23T00:52:39;12.27;;;5.70;;
66437;SDS011;54537;47.972;11.662;2022-07-23T00:55:06;10.10;;;5.45;;
66437;SDS011;54537;47.972;11.662;2022-07-23T00:57:34;10.35;;;5.25;;
66437;SDS011;54537;47.972;11.662;2022-07-23T01:00:01;8.65;;;5.20;;
66437;SDS011;54537;47.972;11.662;2022-07-23T01:02:28;8.00;;;4.75;;
66437;SDS011;54537;47.972;11.662;2022-07-23T01:04:54;7.95;;;5.05;;
66437;SDS011;54537;47.972;11.662;2022-07-23T01:07:20;7.47;;;4.43;;
66437;SDS011;54537;47.972;11.662;2022-07-23T01:09:47;8.75;;;4.82;;
66437;SDS011;54537;47.972;11.662;2022-07-23T01:12:14;7.85;;;4.65;;
66437;SDS011;54537;47.972;11.662;2022-07-23T01:14:42;9.75;;;4.90;;
66437;SDS011;54537;47.972;11.662;2022-07-23T01:17:08;7.88;;;4.75;;
66437;SDS011;54537;47.972;11.662;2022-07-23T01:19:35;8.82;;;4.80;;
66437;SDS011;54537;47.972;11.662;2022-07-23T01:22:02;9.18;;;5.35;;
66437;SDS011;54537;47.972;11.662;2022-07-23T01:24:30;13.73;;;5.82;;
66437;SDS011;54537;47.972;11.662;2022-07-23T01:26:56;11.15;;;6.28;;
66437;SDS011;54537;47.972;11.662;2022-07-23T01:29:23;12.70;;;6.80;;
66437;SDS011;54537;47.972;11.662;2022-07-23T01:31:49;12.80;;;6.93;;
66437;SDS011;54537;47.972;11.662;2022-07-23T01:34:15;12.82;;;6.35;;
66437;SDS011;54537;47.972;11.662;2022-07-23T01:36:42;12.50;;;6.63;;
66437;SDS011;54537;47.972;11.662;2022-07-23T01:39:08;14.13;;;6.57;;
66437;SDS011;54537;47.972;11.662;2022-07-23T01:41:36;10.13;;;5.85;;
66437;SDS011;54537;47.972;11.662;2022-07-23T01:44:02;11.15;;;5.95;;
66437;SDS011;54537;47.972;11.662;2022-07-23T01:46:28;9.70;;;5.28;;
66437;SDS011;54537;47.972;11.662;2022-07-23T01:48:55;10.93;;;5.03;;
66437;SDS011;54537;47.972;11.662;2022-07-23T01:51:21;13.43;;;4.78;;
66437;SDS011;54537;47.972;11.662;2022-07-23T01:53:48;7.80;;;4.28;;
66437;SDS011;54537;47.972;11.662;2022-07-23T01:56:14;9.52;;;4.75;;
66437;SDS011;54537;47.972;11.662;2022-07-23T01:58:42;8.65;;;4.18;;
66437;SDS011;54537;47.972;11.662;2022-07-23T02:01:08;7.35;;;4.30;;
66437;SDS011;54537;47.972;11.662;2022-07-23T02:03:34;7.82;;;4.28;;
66437;SDS011;54537;47.972;11.662;2022-07-23T02:06:00;6.68;;;4.05;;
66437;SDS011;54537;47.972;11.662;2022-07-23T02:08:27;7.57;;;3.92;;
66437;SDS011;54537;47.972;11.662;2022-07-23T02:10:53;8.20;;;3.70;;
66437;SDS011;54537;47.972;11.662;2022-07-23T02:13:19;7.25;;;4.10;;
66437;SDS011;54537;47.972;11.662;2022-07-23T02:15:47;6.63;;;4.03;;
66437;SDS011;54537;47.972;11.662;2022-07-23T02:18:13;6.35;;;3.83;;
66437;SDS011;54537;47.972;11.662;2022-07-23T02:20:40;7.45;;;3.75;;
66437;SDS011;54537;47.972;11.662;2022-07-23T02:23:06;7.35;;;3.80;;
66437;SDS011;54537;47.972;11.662;2022-07-23T02:25:33;6.57;;;3.58;;
66437;SDS011;54537;47.972;11.662;2022-07-23T02:27:59;7.90;;;4.55;;
66437;SDS011;54537;47.972;11.662;2022-07-23T02:30:26;10.18;;;4.13;;
66437;SDS011;54537;47.972;11.662;2022-07-23T02:32:53;6.50;;;3.78;;
66437;SDS011;54537;47.972;11.662;2022-07-23T02:35:20;6.25;;;3.63;;
66437;SDS011;54537;47.972;11.662;2022-07-23T02:37:46;6.72;;;3.70;;
66437;SDS011;54537;47.972;11.662;2022-07-23T02:40:12;6.15;;;3.47;;
66437;SDS011;54537;47.972;11.662;2022-07-23T02:42:39;7.95;;;3.55;;
66437;SDS011;54537;47.972;11.662;2022-07-23T02:45:06;6.13;;;3.47;;
66437;SDS011;54537;47.972;11.662;2022-07-23T02:47:32;5.72;;;3.30;;
66437;SDS011;54537;47.972;11.662;2022-07-23T02:50:00;5.82;;;3.38;;
66437;SDS011;54537;47.972;11.662;2022-07-23T02:52:26;7.65;;;3.63;;
66437;SDS011;54537;47.972;11.662;2022-07-23T02:54:52;5.78;;;3.47;;
66437;SDS011;54537;47.972;11.662;2022-07-23T02:57:18;5.35;;;3.20;;
66437;SDS011;54537;47.972;11.662;2022-07-23T02:59:45;6.75;;;3.60;;
66437;SDS011;54537;47.972;11.662;2022-07-23T03:02:11;6.07;;;3.60;;
66437;SDS011;54537;47.972;11.662;2022-07-23T03:04:37;5.85;;;3.25;;
66437;SDS011;54537;47.972;11.662;2022-07-23T03:07:07;5.63;;;3.42;;
66437;SDS011;54537;47.972;11.662;2022-07-23T03:09:33;7.15;;;3.90;;
66437;SDS011;54537;47.972;11.662;2022-07-23T03:12:00;8.45;;;4.00;;
66437;SDS011;54537;47.972;11.662;2022-07-23T03:14:26;7.22;;;4.30;;
66437;SDS011;54537;47.972;11.662;2022-07-23T03:16:52;8.57;;;4.25;;
66437;SDS011;54537;47.972;11.662;2022-07-23T03:19:19;8.10;;;4.40;;
66437;SDS011;54537;47.972;11.662;2022-07-23T03:21:45;10.52;;;5.00;;
66437;SDS011;54537;47.972;11.662;2022-07-23T03:24:13;7.35;;;4.70;;
66437;SDS011;54537;47.972;11.662;2022-07-23T03:26:39;9.05;;;4.35;;
66437;SDS011;54537;47.972;11.662;2022-07-23T03:29:05;8.75;;;4.63;;
66437;SDS011;54537;47.972;11.662;2022-07-23T03:31:32;7.25;;;4.57;;
66437;SDS011;54537;47.972;11.662;2022-07-23T03:33:58;8.60;;;4.40;;
66437;SDS011;54537;47.972;11.662;2022-07-23T03:36:24;12.13;;;4.90;;
66437;SDS011;54537;47.972;11.662;2022-07-23T03:38:50;9.30;;;4.40;;
66437;SDS011;54537;47.972;11.662;2022-07-23T03:41:18;7.88;;;4.43;;
66437;SDS011;54537;47.972;11.662;2022-07-23T03:43:45;6.85;;;4.25;;
66437;SDS011;54537;47.972;11.662;2022-07-23T03:46:11;9.20;;;4.90;;
66437;SDS011;54537;47.972;11.662;2022-07-23T03:48:38;9.30;;;4.68;;
66437;SDS011;54537;47.972;11.662;2022-07-23T03:51:04;9.60;;;5.25;;
66437;SDS011;54537;47.972;11.662;2022-07-23T03:53:30;8.52;;;4.75;;
66437;SDS011;54537;47.972;11.662;2022-07-23T03:55:57;8.25;;;4.70;;
66437;SDS011;54537;47.972;11.662;2022-07-23T03:58:24;10.00;;;5.05;;
66437;SDS011;54537;47.972;11.662;2022-07-23T04:00:50;14.05;;;5.38;;
66437;SDS011;54537;47.972;11.662;2022-07-23T04:03:17;10.10;;;5.65;;
66437;SDS011;54537;47.972;11.662;2022-07-23T04:05:43;8.80;;;5.22;;
66437;SDS011;54537;47.972;11.662;2022-07-23T04:08:09;10.02;;;5.30;;
66437;SDS011;54537;47.972;11.662;2022-07-23T04:10:36;10.15;;;5.40;;
66437;SDS011;54537;47.972;11.662;2022-07-23T04:13:02;10.40;;;5.55;;
66437;SDS011;54537;47.972;11.662;2022-07-23T04:15:30;11.40;;;5.65;;
66437;SDS011;54537;47.972;11.662;2022-07-23T04:17:56;9.20;;;5.53;;
66437;SDS011;54537;47.972;11.662;2022-07-23T04:20:22;12.27;;;5.60;;
66437;SDS011;54537;47.972;11.662;2022-07-23T04:22:48;11.20;;;5.68;;
66437;SDS011;54537;47.972;11.662;2022-07-23T04:25:15;11.50;;;5.53;;
66437;SDS011;54537;47.972;11.662;2022-07-23T04:27:42;10.43;;;5.18;;
66437;SDS011;54537;47.972;11.662;2022-07-23T04:30:08;11.32;;;5.82;;
66437;SDS011;54537;47.972;11.662;2022-07-23T04:32:36;9.73;;;5.53;;
66437;SDS011;54537;47.972;11.662;2022-07-23T04:35:02;12.20;;;5.53;;
66437;SDS011;54537;47.972;11.662;2022-07-23T04:37:29;13.73;;;5.88;;
66437;SDS011;54537;47.972;11.662;2022-07-23T04:39:55;10.18;;;5.85;;
66437;SDS011;54537;47.972;11.662;2022-07-23T04:42:21;11.23;;;5.07;;
66437;SDS011;54537;47.972;11.662;2022-07-23T04:44:47;11.48;;;5.60;;
66437;SDS011;54537;47.972;11.662;2022-07-23T04:47:14;13.00;;;6.03;;
66437;SDS011;54537;47.972;11.662;2022-07-23T04:49:41;11.73;;;5.97;;
66437;SDS011;54537;47.972;11.662;2022-07-23T04:52:08;9.50;;;5.60;;
66437;SDS011;54537;47.972;11.662;2022-07-23T04:54:34;9.57;;;5.50;;
66437;SDS011;54537;47.972;11.662;2022-07-23T04:57:00;10.13;;;5.45;;
66437;SDS011;54537;47.972;11.662;2022-07-23T04:59:26;9.43;;;5.97;;
66437;SDS011;54537;47.972;11.662;2022-07-23T05:01:53;11.88;;;5.68;;
66437;SDS011;54537;47.972;11.662;2022-07-23T05:04:19;8.50;;;5.13;;
66437;SDS011;54537;47.972;11.662;2022-07-23T05:06:47;10.00;;;5.65;;
66437;SDS011;54537;47.972;11.662;2022-07-23T05:09:13;8.80;;;5.35;;
66437;SDS011;54537;47.972;11.662;2022-07-23T05:11:39;10.18;;;5.60;;
66437;SDS011;54537;47.972;11.662;2022-07-23T05:14:05;9.98;;;5.90;;
66437;SDS011;54537;47.972;11.662;2022-07-23T05:16:32;9.35;;;5.60;;
66437;SDS011;54537;47.972;11.662;2022-07-23T05:18:58;10.77;;;6.45;;
66437;SDS011;54537;47.972;11.662;2022-07-23T05:21:24;9.45;;;5.80;;
66437;SDS011;54537;47.972;11.662;2022-07-23T05:23:52;11.35;;;5.57;;
66437;SDS011;54537;47.972;11.662;2022-07-23T05:26:18;11.45;;;5.68;;
66437;SDS011;54537;47.972;11.662;2022-07-23T05:28:44;10.50;;;5.57;;
66437;SDS011;54537;47.972;11.662;2022-07-23T05:31:11;11.30;;;6.30;;
66437;SDS011;54537;47.972;11.662;2022-07-23T05:33:37;9.95;;;5.60;;
66437;SDS011;54537;47.972;11.662;2022-07-23T05:36:04;11.60;;;6.05;;
66437;SDS011;54537;47.972;11.662;2022-07-23T05:38:31;10.27;;;5.70;;
66437;SDS011;54537;47.972;11.662;2022-07-23T05:40:59;11.68;;;6.53;;
66437;SDS011;54537;47.972;11.662;2022-07-23T05:43:25;10.07;;;5.75;;
66437;SDS011;54537;47.972;11.662;2022-07-23T05:45:51;9.50;;;5.75;;
66437;SDS011;54537;47.972;11.662;2022-07-23T05:48:18;11.30;;;6.25;;
66437;SDS011;54537;47.972;11.662;2022-07-23T05:50:44;10.27;;;5.85;;
66437;SDS011;54537;47.972;11.662;2022-07-23T05:53:11;11.02;;;6.28;;
66437;SDS011;54537;47.972;11.662;2022-07-23T05:55:37;11.32;;;6.13;;
66437;SDS011;54537;47.972;11.662;2022-07-23T05:58:05;11.10;;;6.15;;
66437;SDS011;54537;47.972;11.662;2022-07-23T06:00:31;10.10;;;6.20;;
66437;SDS011;54537;47.972;11.662;2022-07-23T06:02:57;10.13;;;6.15;;
66437;SDS011;54537;47.972;11.662;2022-07-23T06:05:24;10.15;;;6.47;;
66437;SDS011;54537;47.972;11.662;2022-07-23T06:07:50;11.80;;;5.90;;
66437;SDS011;54537;47.972;11.662;2022-07-23T06:10:18;9.32;;;5.82;;
66437;SDS011;54537;47.972;11.662;2022-07-23T06:12:44;12.18;;;6.20;;
66437;SDS011;54537;47.972;11.662;2022-07-23T06:15:11;11.35;;;6.03;;
66437;SDS011;54537;47.972;11.662;2022-07-23T06:17:38;14.35;;;5.72;;
66437;SDS011;54537;47.972;11.662;2022-07-23T06:20:05;9.82;;;5.72;;
66437;SDS011;54537;47.972;11.662;2022-07-23T06:22:31;10.88;;;5.47;;
66437;SDS011;54537;47.972;11.662;2022-07-23T06:24:58;10.23;;;5.80;;
66437;SDS011;54537;47.972;11.662;2022-07-23T06:27:24;11.32;;;5.95;;
66437;SDS011;54537;47.972;11.662;2022-07-23T06:29:50;9.15;;;5.65;;
66437;SDS011;54537;47.972;11.662;2022-07-23T06:32:18;10.13;;;5.82;;
66437;SDS011;54537;47.972;11.662;2022-07-23T06:34:44;11.18;;;5.90;;
66437;SDS011;54537;47.972;11.662;2022-07-23T06:37:10;9.88;;;5.85;;
66437;SDS011;54537;47.972;11.662;2022-07-23T06:39:37;9.40;;;5.95;;
66437;SDS011;54537;47.972;11.662;2022-07-23T06:42:03;9.35;;;5.90;;
66437;SDS011;54537;47.972;11.662;2022-07-23T06:44:30;11.70;;;6.13;;
66437;SDS011;54537;47.972;11.662;2022-07-23T06:46:56;9.40;;;5.43;;
66437;SDS011;54537;47.972;11.662;2022-07-23T06:49:24;9.70;;;5.45;;
66437;SDS011;54537;47.972;11.662;2022-07-23T06:51:50;7.68;;;4.20;;
66437;SDS011;54537;47.972;11.662;2022-07-23T06:54:16;9.10;;;4.78;;
66437;SDS011;54537;47.972;11.662;2022-07-23T06:56:42;11.48;;;4.82;;
66437;SDS011;54537;47.972;11.662;2022-07-23T06:59:09;7.88;;;4.50;;
66437;SDS011;54537;47.972;11.662;2022-07-23T07:01:35;10.57;;;5.20;;
66437;SDS011;54537;47.972;11.662;2022-07-23T07:04:02;9.05;;;4.90;;
66437;SDS011;54537;47.972;11.662;2022-07-23T07:06:30;8.73;;;4.78;;
66437;SDS011;54537;47.972;11.662;2022-07-23T07:08:56;8.82;;;4.97;;
66437;SDS011;54537;47.972;11.662;2022-07-23T07:11:22;7.93;;;4.70;;
66437;SDS011;54537;47.972;11.662;2022-07-23T07:13:50;10.48;;;5.20;;
66437;SDS011;54537;47.972;11.662;2022-07-23T07:16:16;8.10;;;4.97;;
66437;SDS011;54537;47.972;11.662;2022-07-23T07:18:43;8.35;;;4.80;;
66437;SDS011;54537;47.972;11.662;2022-07-23T07:21:09;9.93;;;5.57;;
66437;SDS011;54537;47.972;11.662;2022-07-23T07:23:37;8.57;;;5.13;;
66437;SDS011;54537;47.972;11.662;2022-07-23T07:26:03;9.40;;;5.32;;
66437;SDS011;54537;47.972;11.662;2022-07-23T07:28:29;9.88;;;5.82;;
66437;SDS011;54537;47.972;11.662;2022-07-23T07:30:55;8.82;;;5.55;;
66437;SDS011;54537;47.972;11.662;2022-07-23T07:33:22;8.07;;;5.53;;
66437;SDS011;54537;47.972;11.662;2022-07-23T07:35:48;10.15;;;5.38;;
66437;SDS011;54537;47.972;11.662;2022-07-23T07:38:14;8.70;;;5.28;;
66437;SDS011;54537;47.972;11.662;2022-07-23T07:40:42;8.10;;;5.25;;
66437;SDS011;54537;47.972;11.662;2022-07-23T07:43:08;9.93;;;5.88;;
66437;SDS011;54537;47.972;11.662;2022-07-23T07:45:35;10.75;;;5.13;;
66437;SDS011;54537;47.972;11.662;2022-07-23T07:48:01;10.45;;;5.13;;
66437;SDS011;54537;47.972;11.662;2022-07-23T07:50:28;10.52;;;5.53;;
66437;SDS011;54537;47.972;11.662;2022-07-23T07:52:54;9.45;;;5.35;;
66437;SDS011;54537;47.972;11.662;2022-07-23T07:55:20;8.38;;;5.22;;
66437;SDS011;54537;47.972;11.662;2022-07-23T07:57:48;9.18;;;5.35;;
66437;SDS011;54537;47.972;11.662;2022-07-23T08:00:15;8.93;;;5.30;;
66437;SDS011;54537;47.972;11.662;2022-07-23T08:02:42;10.00;;;5.50;;
66437;SDS011;54537;47.972;11.662;2022-07-23T08:05:08;10.02;;;5.32;;
66437;SDS011;54537;47.972;11.662;2022-07-23T08:07:35;9.30;;;5.57;;
66437;SDS011;54537;47.972;11.662;2022-07-23T08:10:02;9.32;;;5.63;;
66437;SDS011;54537;47.972;11.662;2022-07-23T08:12:36;7.85;;;5.32;;
66437;SDS011;54537;47.972;11.662;2022-07-23T08:15:05;7.93;;;5.07;;
66437;SDS011;54537;47.972;11.662;2022-07-23T08:17:31;8.38;;;5.38;;
66437;SDS011;54537;47.972;11.662;2022-07-23T08:19:57;9.13;;;5.18;;
66437;SDS011;54537;47.972;11.662;2022-07-23T08:22:24;9.30;;;4.97;;
66437;SDS011;54537;47.972;11.662;2022-07-23T08:24:50;8.82;;;5.15;;
66437;SDS011;54537;47.972;11.662;2022-07-23T08:27:16;8.05;;;4.93;;
66437;SDS011;54537;47.972;11.662;2022-07-23T08:29:42;7.70;;;4.72;;
66437;SDS011;54537;47.972;11.662;2022-07-23T08:32:10;9.00;;;4.72;;
66437;SDS011;54537;47.972;11.662;2022-07-23T08:34:36;8.13;;;5.07;;
66437;SDS011;54537;47.972;11.662;2022-07-23T08:37:03;7.88;;;4.70;;
66437;SDS011;54537;47.972;11.662;2022-07-23T08:39:29;9.52;;;4.78;;
66437;SDS011;54537;47.972;11.662;2022-07-23T08:41:55;9.05;;;4.85;;
66437;SDS011;54537;47.972;11.662;2022-07-23T08:44:21;8.15;;;4.93;;
66437;SDS011;54537;47.972;11.662;2022-07-23T08:46:48;8.82;;;4.88;;
66437;SDS011;54537;47.972;11.662;2022-07-23T08:49:15;7.57;;;4.80;;
66437;SDS011;54537;47.972;11.662;2022-07-23T08:51:42;8.13;;;4.65;;
66437;SDS011;54537;47.972;11.662;2022-07-23T08:54:08;10.45;;;4.75;;
66437;SDS011;54537;47.972;11.662;2022-07-23T08:56:35;9.65;;;4.97;;
66437;SDS011;54537;47.972;11.662;2022-07-23T08:59:01;8.52;;;5.07;;
66437;SDS011;54537;47.972;11.662;2022-07-23T09:01:27;7.47;;;4.60;;
66437;SDS011;54537;47.972;11.662;2022-07-23T09:03:53;7.85;;;4.72;;
66437;SDS011;54537;47.972;11.662;2022-07-23T09:06:21;9.13;;;5.18;;
66437;SDS011;54537;47.972;11.662;2022-07-23T09:08:47;9.07;;;5.38;;
66437;SDS011;54537;47.972;11.662;2022-07-23T09:11:15;10.07;;;5.35;;
66437;SDS011;54537;47.972;11.662;2022-07-23T09:13:42;9.00;;;5.03;;
66437;SDS011;54537;47.972;11.662;2022-07-23T09:16:09;8.43;;;4.93;;
66437;SDS011;54537;47.972;11.662;2022-07-23T09:18:38;9.05;;;5.47;;
66437;SDS011;54537;47.972;11.662;2022-07-23T09:21:05;7.93;;;4.90;;
66437;SDS011;54537;47.972;11.662;2022-07-23T09:23:37;7.82;;;4.82;;
66437;SDS011;54537;47.972;11.662;2022-07-23T09:26:07;7.15;;;4.68;;
66437;SDS011;54537;47.972;11.662;2022-07-23T09:28:47;7.40;;;4.50;;
66437;SDS011;54537;47.972;11.662;2022-07-23T09:31:15;8.82;;;4.93;;
66437;SDS011;54537;47.972;11.662;2022-07-23T09:33:41;7.85;;;4.57;;
66437;SDS011;54537;47.972;11.662;2022-07-23T09:36:08;8.30;;;4.80;;
66437;SDS011;54537;47.972;11.662;2022-07-23T09:38:34;9.05;;;5.35;;
66437;SDS011;54537;47.972;11.662;2022-07-23T09:41:08;7.90;;;5.07;;
66437;SDS011;54537;47.972;11.662;2022-07-23T09:43:35;8.95;;;5.18;;
66437;SDS011;54537;47.972;11.662;2022-07-23T09:46:17;10.10;;;5.72;;
66437;SDS011;54537;47.972;11.662;2022-07-23T09:48:43;8.57;;;5.00;;
66437;SDS011;54537;47.972;11.662;2022-07-23T09:51:09;9.25;;;5.43;;
66437;SDS011;54537;47.972;11.662;2022-07-23T09:53:36;8.52;;;4.90;;
66437;SDS011;54537;47.972;11.662;2022-07-23T09:56:02;7.90;;;4.85;;
66437;SDS011;54537;47.972;11.662;2022-07-23T09:58:30;8.27;;;4.57;;
66437;SDS011;54537;47.972;11.662;2022-07-23T10:00:57;7.35;;;4.40;;
66437;SDS011;54537;47.972;11.662;2022-07-23T10:03:24;10.00;;;4.72;;
66437;SDS011;54537;47.972;11.662;2022-07-23T10:05:50;7.72;;;4.75;;
66437;SDS011;54537;47.972;11.662;2022-07-23T10:08:18;8.40;;;4.45;;
66437;SDS011;54537;47.972;11.662;2022-07-23T10:10:46;7.68;;;4.40;;
66437;SDS011;54537;47.972;11.662;2022-07-23T10:13:13;7.60;;;4.68;;
66437;SDS011;54537;47.972;11.662;2022-07-23T10:16:04;6.53;;;4.30;;
66437;SDS011;54537;47.972;11.662;2022-07-23T10:18:30;7.00;;;4.15;;
66437;SDS011;54537;47.972;11.662;2022-07-23T10:20:57;7.38;;;4.20;;
66437;SDS011;54537;47.972;11.662;2022-07-23T10:23:27;8.02;;;4.20;;
66437;SDS011;54537;47.972;11.662;2022-07-23T10:25:58;6.22;;;4.32;;
66437;SDS011;54537;47.972;11.662;2022-07-23T10:28:32;7.97;;;4.47;;
66437;SDS011;54537;47.972;11.662;2022-07-23T10:31:08;7.50;;;4.40;;
66437;SDS011;54537;47.972;11.662;2022-07-23T10:33:38;7.03;;;4.00;;
66437;SDS011;54537;47.972;11.662;2022-07-23T10:36:08;7.43;;;4.18;;
66437;SDS011;54537;47.972;11.662;2022-07-23T10:38:37;7.70;;;4.70;;
66437;SDS011;54537;47.972;11.662;2022-07-23T10:41:06;10.18;;;4.82;;
66437;SDS011;54537;47.972;11.662;2022-07-23T10:43:32;8.90;;;4.63;;
66437;SDS011;54537;47.972;11.662;2022-07-23T10:48:41;9.10;;;5.20;;
66437;SDS011;54537;47.972;11.662;2022-07-23T10:51:08;7.90;;;4.72;;
66437;SDS011;54537;47.972;11.662;2022-07-23T10:53:54;7.68;;;4.63;;
66437;SDS011;54537;47.972;11.662;2022-07-23T10:59:03;7.70;;;4.47;;
66437;SDS011;54537;47.972;11.662;2022-07-23T11:01:33;7.05;;;4.47;;
66437;SDS011;54537;47.972;11.662;2022-07-23T11:04:00;6.75;;;4.57;;
66437;SDS011;54537;47.972;11.662;2022-07-23T11:09:23;7.35;;;4.55;;
66437;SDS011;54537;47.972;11.662;2022-07-23T11:11:49;8.00;;;4.68;;
66437;SDS011;54537;47.972;11.662;2022-07-23T11:14:15;7.80;;;4.70;;
66437;SDS011;54537;47.972;11.662;2022-07-23T11:17:01;9.95;;;5.15;;
66437;SDS011;54537;47.972;11.662;2022-07-23T11:22:34;8.60;;;5.00;;
66437;SDS011;54537;47.972;11.662;2022-07-23T11:25:02;6.60;;;4.53;;
66437;SDS011;54537;47.972;11.662;2022-07-23T11:27:36;7.95;;;4.85;;
66437;SDS011;54537;47.972;11.662;2022-07-23T11:30:02;10.18;;;5.20;;
66437;SDS011;54537;47.972;11.662;2022-07-23T11:32:36;8.32;;;4.75;;
66437;SDS011;54537;47.972;11.662;2022-07-23T11:35:20;9.02;;;5.28;;
66437;SDS011;54537;47.972;11.662;2022-07-23T11:37:47;8.45;;;4.90;;
66437;SDS011;54537;47.972;11.662;2022-07-23T11:40:15;8.00;;;4.68;;
66437;SDS011;54537;47.972;11.662;2022-07-23T11:42:50;8.55;;;4.70;;
66437;SDS011;54537;47.972;11.662;2022-07-23T11:45:17;8.38;;;4.95;;
66437;SDS011;54537;47.972;11.662;2022-07-23T11:47:43;8.75;;;4.97;;
66437;SDS011;54537;47.972;11.662;2022-07-23T11:50:09;9.00;;;5.40;;
66437;SDS011;54537;47.972;11.662;2022-07-23T11:52:36;8.82;;;4.72;;
66437;SDS011;54537;47.972;11.662;2022-07-23T11:55:03;8.52;;;4.70;;
66437;SDS011;54537;47.972;11.662;2022-07-23T11:57:32;8.70;;;5.20;;
66437;SDS011;54537;47.972;11.662;2022-07-23T12:00:02;7.88;;;4.70;;
66437;SDS011;54537;47.972;11.662;2022-07-23T12:02:28;8.95;;;5.10;;
66437;SDS011;54537;47.972;11.662;2022-07-23T12:04:55;6.93;;;4.63;;
66437;SDS011;54537;47.972;11.662;2022-07-23T12:07:25;6.78;;;4.60;;
66437;SDS011;54537;47.972;11.662;2022-07-23T12:09:51;8.55;;;4.60;;
66437;SDS011;54537;47.972;11.662;2022-07-23T12:12:18;9.57;;;4.70;;
66437;SDS011;54537;47.972;11.662;2022-07-23T12:14:50;10.45;;;5.00;;
66437;SDS011;54537;47.972;11.662;2022-07-23T12:17:16;7.05;;;4.57;;
66437;SDS011;54537;47.972;11.662;2022-07-23T12:19:42;7.85;;;4.65;;
66437;SDS011;54537;47.972;11.662;2022-07-23T12:22:09;8.35;;;5.18;;
66437;SDS011;54537;47.972;11.662;2022-07-23T12:27:19;6.68;;;4.28;;
66437;SDS011;54537;47.972;11.662;2022-07-23T12:29:46;8.15;;;4.40;;
66437;SDS011;54537;47.972;11.662;2022-07-23T12:32:20;7.60;;;4.78;;
66437;SDS011;54537;47.972;11.662;2022-07-23T12:34:51;7.40;;;4.65;;
66437;SDS011;54537;47.972;11.662;2022-07-23T12:37:27;7.38;;;4.25;;
66437;SDS011;54537;47.972;11.662;2022-07-23T12:39:53;8.68;;;4.68;;
66437;SDS011;54537;47.972;11.662;2022-07-23T12:42:20;7.43;;;4.78;;
66437;SDS011;54537;47.972;11.662;2022-07-23T12:45:06;8.55;;;4.47;;
66437;SDS011;54537;47.972;11.662;2022-07-23T12:53:02;7.15;;;4.50;;
66437;SDS011;54537;47.972;11.662;2022-07-23T12:55:28;10.02;;;4.82;;
66437;SDS011;54537;47.972;11.662;2022-07-23T12:58:02;7.72;;;4.10;;
66437;SDS011;54537;47.972;11.662;2022-07-23T13:00:28;10.23;;;5.13;;
66437;SDS011;54537;47.972;11.662;2022-07-23T13:02:54;7.32;;;4.70;;
66437;SDS011;54537;47.972;11.662;2022-07-23T13:05:20;8.32;;;5.00;;
66437;SDS011;54537;47.972;11.662;2022-07-23T13:07:47;7.53;;;4.75;;
66437;SDS011;54537;47.972;11.662;2022-07-23T13:10:14;8.27;;;4.45;;
66437;SDS011;54537;47.972;11.662;2022-07-23T13:12:41;6.88;;;4.35;;
66437;SDS011;54537;47.972;11.662;2022-07-23T13:15:07;8.27;;;4.40;;
66437;SDS011;54537;47.972;11.662;2022-07-23T13:17:34;8.32;;;4.55;;
66437;SDS011;54537;47.972;11.662;2022-07-23T13:20:00;9.25;;;4.82;;
66437;SDS011;54537;47.972;11.662;2022-07-23T13:22:27;7.80;;;4.28;;
66437;SDS011;54537;47.972;11.662;2022-07-23T13:24:53;7.60;;;4.72;;
66437;SDS011;54537;47.972;11.662;2022-07-23T13:27:21;8.35;;;4.53;;
66437;SDS011;54537;47.972;11.662;2022-07-23T13:29:47;9.43;;;4.32;;
66437;SDS011;54537;47.972;11.662;2022-07-23T13:32:13;7.28;;;4.35;;
66437;SDS011;54537;47.972;11.662;2022-07-23T13:34:40;8.40;;;4.28;;
66437;SDS011;54537;47.972;11.662;2022-07-23T13:37:06;7.57;;;4.32;;
66437;SDS011;54537;47.972;11.662;2022-07-23T13:39:32;7.90;;;4.50;;
66437;SDS011;54537;47.972;11.662;2022-07-23T13:41:59;7.97;;;4.32;;
66437;SDS011;54537;47.972;11.662;2022-07-23T13:44:26;7.88;;;4.40;;
66437;SDS011;54537;47.972;11.662;2022-07-23T13:46:53;7.57;;;4.72;;
66437;SDS011;54537;47.972;11.662;2022-07-23T13:49:19;9.00;;;4.68;;
66437;SDS011;54537;47.972;11.662;2022-07-23T13:51:45;7.63;;;4.65;;
66437;SDS011;54537;47.972;11.662;2022-07-23T13:54:12;7.93;;;4.72;;
66437;SDS011;54537;47.972;11.662;2022-07-23T13:56:38;8.52;;;4.45;;
66437;SDS011;54537;47.972;11.662;2022-07-23T13:59:04;8.20;;;4.53;;
66437;SDS011;54537;47.972;11.662;2022-07-23T14:01:32;8.32;;;5.30;;
66437;SDS011;54537;47.972;11.662;2022-07-23T14:03:58;7.13;;;4.55;;
66437;SDS011;54537;47.972;11.662;2022-07-23T14:06:24;9.65;;;4.88;;
66437;SDS011;54537;47.972;11.662;2022-07-23T14:08:51;8.27;;;4.53;;
66437;SDS011;54537;47.972;11.662;2022-07-23T14:11:17;8.43;;;4.53;;
66437;SDS011;54537;47.972;11.662;2022-07-23T14:13:43;8.10;;;4.30;;
66437;SDS011;54537;47.972;11.662;2022-07-23T14:16:10;7.88;;;4.40;;
66437;SDS011;54537;47.972;11.662;2022-07-23T14:18:37;7.18;;;4.13;;
66437;SDS011;54537;47.972;11.662;2022-07-23T14:21:04;9.68;;;4.30;;
66437;SDS011;54537;47.972;11.662;2022-07-23T14:23:30;8.93;;;4.72;;
66437;SDS011;54537;47.972;11.662;2022-07-23T14:25:56;7.38;;;4.80;;
66437;SDS011;54537;47.972;11.662;2022-07-23T14:28:22;7.13;;;4.20;;
66437;SDS011;54537;47.972;11.662;2022-07-23T14:30:49;9.60;;;4.80;;
66437;SDS011;54537;47.972;11.662;2022-07-23T14:33:15;8.15;;;5.13;;
66437;SDS011;54537;47.972;11.662;2022-07-23T14:35:43;8.15;;;5.03;;
66437;SDS011;54537;47.972;11.662;2022-07-23T14:38:09;10.40;;;5.03;;
66437;SDS011;54537;47.972;11.662;2022-07-23T14:40:35;13.02;;;4.70;;
66437;SDS011;54537;47.972;11.662;2022-07-23T14:43:02;8.30;;;4.70;;
66437;SDS011;54537;47.972;11.662;2022-07-23T14:45:28;10.40;;;6.47;;
66437;SDS011;54537;47.972;11.662;2022-07-23T14:47:55;9.38;;;5.13;;
66437;SDS011;54537;47.972;11.662;2022-07-23T14:50:21;10.55;;;6.32;;